全部
Karumba Airport (Karumba, Queensland) KRB 天氣
There is no TAF data available at KRB. Showing TAF data for YNTN (22 mi SE).
NTN終端機場天氣預報(KRB無資料)
| Date | Time (AEST) | Flight Rules | Wind Dir. | Speed | Type | Height AGL (ft) | Visibility | Remarks | ||||||
|---|---|---|---|---|---|---|---|---|---|---|---|---|---|---|
| 05-五月 | 23:00 | VFR | 160° | 7 kt | Clouds and Visibility are OK | >= 6 miles | ||||||||
| 05-五月 | 22:00 | VFR | 160° | 7 kt | Clouds and Visibility are OK | >= 6 miles | ||||||||
| 05-五月 | 21:00 | VFR | 160° | 7 kt | Clouds and Visibility are OK | >= 6 miles | ||||||||
| 05-五月 | 20:00 | VFR | 160° | 7 kt | Clouds and Visibility are OK | >= 6 miles | ||||||||
| 05-五月 | 19:00 | VFR | 160° | 7 kt | Clouds and Visibility are OK | >= 6 miles | ||||||||
| 05-五月 | 18:00 | VFR | 160° | 7 kt | Clouds and Visibility are OK | >= 6 miles | ||||||||
| 05-五月 | 17:00 | VFR | 160° | 7 kt | Clouds and Visibility are OK | >= 6 miles | ||||||||
| 05-五月 | 16:00 | VFR | 130° | 11 kt | Clouds and Visibility are OK | >= 6 miles | ||||||||
| 05-五月 | 15:00 | VFR | 130° | 11 kt | Clouds and Visibility are OK | >= 6 miles | ||||||||
| 05-五月 | 14:00 | VFR | 130° | 11 kt | Clouds and Visibility are OK | >= 6 miles | ||||||||
| 05-五月 | 13:00 | VFR | 130° | 11 kt | Clouds and Visibility are OK | >= 6 miles | ||||||||
There is no METAR data available at KRB. Showing METAR data for YNTN (22 mi SE).
NTN近期METAR歷史資料(KRB無資料)
| Date | Time (AEST) | Flight Rules | Wind Dir. | Speed | Type | Height AGL (ft) | Visibility | Temp (°C) | Temp (°F) | Dew Point (°C) | Dew Point (°F) | Rel. Humid. | Pressure | Density Altitude | Remarks |
|---|---|---|---|---|---|---|---|---|---|---|---|---|---|---|---|
| 05-五月 | 13:00 | VFR | 170° | 8 kt | 10000 meters | 30° | 86° | 18° | 64° | 49% | 1012 mb | 1,909 ft | |||
| 05-五月 | 12:00 | VFR | 170° | 10 kt | 10000 meters | 29° | 84° | 18° | 64° | 52% | 1013 mb | 1,759 ft | |||
| 05-五月 | 11:00 | VFR | 160° | 10 kt | 10000 meters | 27° | 80° | 17° | 62° | 54% | 1015 mb | 1,460 ft | |||
| 05-五月 | 10:00 | VFR | 160° | 14 kt | 10000 meters | 26° | 78° | 17° | 62° | 58% | 1015 mb | 1,340 ft | |||
| 05-五月 | 09:00 | VFR | 160° | 15 kt | 10000 meters | 24° | 75° | 16° | 60° | 61% | 1015 mb | 1,100 ft | |||
| 05-五月 | 08:00 | VFR | 160° | 12 kt | 10000 meters | 23° | 73° | 15° | 59° | 61% | 1014 mb | 1,010 ft | |||
| 05-五月 | 07:00 | VFR | 150° | 11 kt | 10000 meters | 22° | 71° | 15° | 59° | 65% | 1014 mb | 890 ft | |||
| 05-五月 | 06:00 | VFR | 160° | 12 kt | 10000 meters | 22° | 71° | 15° | 59° | 65% | 1013 mb | 919 ft | |||
| 05-五月 | 05:00 | VFR | 170° | 14 kt | 10000 meters | 23° | 73° | 15° | 59° | 61% | 1013 mb | 1,039 ft | |||
| 05-五月 | 04:00 | VFR | 170° | 14 kt | 10000 meters | 24° | 75° | 15° | 59° | 57% | 1013 mb | 1,159 ft | |||
| 05-五月 | 03:00 | VFR | 180° | 11 kt | 10000 meters | 23° | 73° | 14° | 57° | 57% | 1013 mb | 1,039 ft | |||
| 05-五月 | 02:00 | VFR | 180° | 13 kt | 10000 meters | 24° | 75° | 14° | 57° | 54% | 1013 mb | 1,159 ft | |||
| 05-五月 | 01:00 | VFR | 190° | 15 kt | 10000 meters | 25° | 77° | 14° | 57° | 50% | 1014 mb | 1,250 ft | |||
| 05-五月 | 00:00 | VFR | 190° | 13 kt | 10000 meters | 26° | 78° | 16° | 60° | 54% | 1013 mb | 1,399 ft | |||
| 04-五月 | 23:00 | VFR | 190° | 7 kt | 10000 meters | 27° | 80° | 17° | 62° | 54% | 1013 mb | 1,519 ft | |||
| 04-五月 | 22:00 | VFR | 190° | 6 kt | 10000 meters | 26° | 78° | 17° | 62° | 58% | 1013 mb | 1,399 ft | |||
| 04-五月 | 21:00 | VFR | 180° | 6 kt | 10000 meters | 27° | 80° | 17° | 62° | 54% | 1013 mb | 1,519 ft | |||
| 04-五月 | 20:00 | VFR | 170° | 5 kt | 10000 meters | 28° | 82° | 17° | 62° | 51% | 1012 mb | 1,669 ft | |||
| 04-五月 | 19:00 | VFR | 170° | 3 kt | 10000 meters | 29° | 84° | 17° | 62° | 48% | 1012 mb | 1,789 ft | |||
| 04-五月 | 18:00 | VFR | 130° | 4 kt | 10000 meters | 31° | 87° | 17° | 62° | 43% | 1011 mb | 2,058 ft | |||
| 04-五月 | 17:00 | VFR | 150° | 7 kt | 10000 meters | 33° | 91° | 16° | 60° | 36% | 1010 mb | 2,328 ft | |||
| 04-五月 | 16:00 | VFR | 130° | 5 kt | 10000 meters | 34° | 93° | 17° | 62° | 36% | 1010 mb | 2,448 ft | |||
| 04-五月 | 15:00 | VFR | 130° | 6 kt | 10000 meters | 33° | 91° | 16° | 60° | 36% | 1010 mb | 2,328 ft | |||
| 04-五月 | 14:00 | VFR | 110° | 5 kt | 10000 meters | 34° | 93° | 18° | 64° | 39% | 1011 mb | 2,418 ft |
登入
| 您的瀏覽器不支援. 升級您的瀏覽器 |
